Time;durP1;ratioP1;P1;durP2;ratioP2;P2;SDS_P1;SDS_P2;PMS_P1;PMS_P2;Temp;Humidity;BMP_temperature;BMP_pressure;BME280_temperature;BME280_humidity;BME280_pressure;Samples;Min_cycle;Max_cycle;Signal;HPM_P1;HPM_P2
2024/01/04 00:01:12;;;;;;;4.63;3.20;;;;;;;8.23;100.00;98270.63;4972876;28;20216;-80
2024/01/04 00:03:39;;;;;;;4.40;2.63;;;;;;;8.24;100.00;98266.97;4978285;28;20244;-79
2024/01/04 00:06:05;;;;;;;6.70;2.73;;;;;;;8.21;100.00;98272.56;4975420;28;20251;-80
2024/01/04 00:08:32;;;;;;;3.93;2.90;;;;;;;8.16;100.00;98268.66;4976265;28;20201;-81
2024/01/04 00:10:58;;;;;;;3.87;2.90;;;;;;;8.14;100.00;98268.78;4973094;28;20212;-79
2024/01/04 00:13:25;;;;;;;4.33;3.20;;;;;;;8.13;100.00;98264.47;4977083;28;20262;-80
2024/01/04 00:15:53;;;;;;;3.50;2.87;;;;;;;8.13;100.00;98272.41;4969270;28;20220;-80
2024/01/04 00:18:20;;;;;;;5.17;3.90;;;;;;;8.15;100.00;98278.41;4971119;28;20219;-79
2024/01/04 00:20:46;;;;;;;4.83;4.00;;;;;;;8.13;100.00;98271.56;4973184;28;20219;-79
2024/01/04 00:23:13;;;;;;;4.93;4.13;;;;;;;8.12;100.00;98273.38;4973174;28;20212;-80
2024/01/04 00:25:39;;;;;;;7.33;5.13;;;;;;;8.13;100.00;98264.47;4977671;28;20224;-81
2024/01/04 00:28:07;;;;;;;5.80;4.30;;;;;;;8.14;100.00;98281.19;4973890;28;20225;-78
2024/01/04 00:30:33;;;;;;;5.40;4.33;;;;;;;8.14;100.00;98276.75;4971712;28;20205;-81
2024/01/04 00:33:01;;;;;;;5.60;4.20;;;;;;;8.12;100.00;98277.84;4974605;28;20204;-81
2024/01/04 00:35:27;;;;;;;8.57;5.70;;;;;;;8.13;100.00;98280.38;4973764;28;20580;-81
2024/01/04 00:37:56;;;;;;;5.80;5.20;;;;;;;8.12;100.00;98288.47;4971074;28;20604;-83
2024/01/04 00:40:22;;;;;;;6.80;4.50;;;;;;;8.14;100.00;98292.66;4971364;28;20208;-80
2024/01/04 00:42:49;;;;;;;4.47;3.33;;;;;;;8.16;100.00;98284.56;4979506;28;20665;-81
2024/01/04 00:45:15;;;;;;;5.37;3.47;;;;;;;8.13;100.00;98280.38;4975564;28;20218;-80
2024/01/04 00:47:42;;;;;;;4.60;3.80;;;;;;;8.13;100.00;98292.78;4970530;28;20567;-80
2024/01/04 00:50:11;;;;;;;4.37;3.50;;;;;;;8.14;100.00;98289.16;4969557;28;20229;-81
2024/01/04 00:52:37;;;;;;;5.07;2.90;;;;;;;8.15;100.00;98285.53;4968840;28;20618;-81
2024/01/04 00:55:04;;;;;;;4.93;2.40;;;;;;;8.12;100.00;98291.94;4972063;28;20554;-82
2024/01/04 00:57:31;;;;;;;2.27;1.90;;;;;;;8.11;100.00;98300.03;4975321;28;20235;-81
2024/01/04 00:59:57;;;;;;;2.40;1.80;;;;;;;8.06;100.00;98303.09;4968942;28;20212;-81
2024/01/04 01:02:24;;;;;;;3.97;1.80;;;;;;;8.03;100.00;98316.66;4970594;28;20209;-81
2024/01/04 01:04:50;;;;;;;4.37;2.00;;;;;;;8.01;100.00;98311.47;4973009;28;20212;-82
2024/01/04 01:07:18;;;;;;;3.07;2.30;;;;;;;7.95;100.00;98314.69;4976805;28;20326;-81
2024/01/04 01:09:44;;;;;;;5.13;3.40;;;;;;;7.94;100.00;98315.66;4973082;28;20469;-82
2024/01/04 01:12:11;;;;;;;5.77;3.60;;;;;;;7.93;100.00;98310.47;4965549;28;20222;-79
2024/01/04 01:14:37;;;;;;;5.80;4.30;;;;;;;7.93;100.00;98302.53;4970489;28;20204;-82
2024/01/04 01:17:04;;;;;;;6.47;4.37;;;;;;;7.94;100.00;98317.47;4973401;28;21091;-82
2024/01/04 01:19:31;;;;;;;4.17;3.33;;;;;;;7.95;100.00;98319.13;4968197;28;20208;-81
2024/01/04 01:21:57;;;;;;;5.97;3.13;;;;;;;7.95;100.00;98319.13;4971285;28;20204;-82
2024/01/04 01:24:25;;;;;;;4.60;2.43;;;;;;;7.94;100.00;98328.06;4975126;28;20224;-79
2024/01/04 01:26:52;;;;;;;3.03;2.60;;;;;;;7.90;100.00;98319.53;4966681;28;20735;-82
2024/01/04 01:29:18;;;;;;;2.80;2.03;;;;;;;7.90;100.00;98324.00;4968635;28;20658;-81
2024/01/04 01:31:44;;;;;;;3.37;2.00;;;;;;;7.86;100.00;98336.72;4967740;28;20684;-82
2024/01/04 01:34:11;;;;;;;1.73;1.57;;;;;;;7.87;100.00;98329.59;4971053;28;20204;-81
2024/01/04 01:36:40;;;;;;;2.90;1.50;;;;;;;7.87;100.00;98338.38;4972190;28;20232;-81
2024/01/04 01:39:08;;;;;;;2.30;2.10;;;;;;;7.86;100.00;98347.31;4968068;28;20201;-79
2024/01/04 01:41:36;;;;;;;5.87;3.47;;;;;;;7.84;100.00;98343.13;4965782;28;20248;-80
2024/01/04 01:44:02;;;;;;;5.43;3.63;;;;;;;7.83;100.00;98352.88;4968315;28;20783;-79
2024/01/04 01:46:29;;;;;;;6.27;4.27;;;;;;;7.82;100.00;98355.66;4970519;28;20232;-80
2024/01/04 01:48:56;;;;;;;4.17;3.80;;;;;;;7.84;100.00;98359.03;4971038;28;20204;-83
2024/01/04 01:51:22;;;;;;;6.67;4.43;;;;;;;7.84;100.00;98364.31;4971258;28;20236;-81
2024/01/04 01:53:49;;;;;;;5.47;3.80;;;;;;;7.80;100.00;98374.34;4972187;28;20211;-83
2024/01/04 01:56:16;;;;;;;5.07;3.70;;;;;;;7.85;100.00;98366.00;4968986;28;20224;-82
2024/01/04 01:58:44;;;;;;;4.57;2.77;;;;;;;7.83;100.00;98367.94;4966567;28;20234;-81
2024/01/04 02:01:10;;;;;;;3.53;2.43;;;;;;;7.80;100.00;98376.16;4969008;28;20680;-82
2024/01/04 02:03:38;;;;;;;4.83;2.40;;;;;;;7.81;100.00;98383.13;4963486;28;20231;-83
2024/01/04 02:06:04;;;;;;;2.93;2.53;;;;;;;7.80;100.00;98390.25;4971754;28;21150;-81
2024/01/04 02:08:31;;;;;;;3.97;2.50;;;;;;;7.80;100.00;98395.53;4965419;28;20231;-81
2024/01/04 02:10:58;;;;;;;4.70;2.83;;;;;;;7.79;100.00;98387.72;4969055;28;20208;-83
2024/01/04 02:13:24;;;;;;;2.37;2.17;;;;;;;7.76;100.00;98394.13;4967080;28;20292;-82
2024/01/04 02:15:52;;;;;;;4.10;1.80;;;;;;;7.76;100.00;98394.13;4968259;28;20228;-82
2024/01/04 02:18:18;;;;;;;3.23;1.00;;;;;;;7.72;100.00;98392.72;4969254;28;20216;-80
2024/01/04 02:20:45;;;;;;;1.40;0.70;;;;;;;7.71;100.00;98414.03;4968443;28;20215;-79
2024/01/04 02:23:16;;;;;;;1.00;0.90;;;;;;;7.70;100.00;98415.03;4972077;28;20208;-81
2024/01/04 02:25:43;;;;;;;1.07;0.70;;;;;;;7.65;100.00;98412.78;4971591;28;20646;-80
2024/01/04 02:28:09;;;;;;;0.57;0.50;;;;;;;7.63;100.00;98420.84;4976023;28;20251;-80
2024/01/04 02:30:36;;;;;;;1.87;0.50;;;;;;;7.63;100.00;98428.81;4967187;28;20216;-79
2024/01/04 02:33:02;;;;;;;1.30;0.50;;;;;;;7.60;100.00;98429.06;4970337;28;20676;-81
2024/01/04 02:35:29;;;;;;;0.43;0.43;;;;;;;7.58;100.00;98431.00;4968181;28;20554;-79
2024/01/04 02:37:56;;;;;;;0.80;0.40;;;;;;;7.61;100.00;98446.63;4969146;28;20204;-80
2024/01/04 02:40:24;;;;;;;1.93;0.50;;;;;;;7.58;100.00;98443.41;4972148;28;20247;-80
2024/01/04 02:42:50;;;;;;;0.90;0.60;;;;;;;7.59;100.00;98461.81;4967416;28;20212;-80
2024/01/04 02:45:17;;;;;;;0.67;0.67;;;;;;;7.63;100.00;98462.41;4969467;28;20222;-81
2024/01/04 02:47:43;;;;;;;2.80;0.70;;;;;;;7.60;100.00;98462.66;4969701;28;20235;-82
2024/01/04 02:50:11;;;;;;;1.33;0.80;;;;;;;7.60;100.00;98454.72;4972510;28;20208;-82
2024/01/04 02:52:38;;;;;;;1.90;0.70;;;;;;;7.60;100.00;98460.00;4965472;28;20213;-79
2024/01/04 02:55:05;;;;;;;0.87;0.70;;;;;;;7.57;100.00;98469.06;4970876;28;20211;-81
2024/01/04 02:57:33;;;;;;;2.20;0.70;;;;;;;7.57;100.00;98466.41;4968990;28;20224;-81
2024/01/04 02:59:59;;;;;;;2.77;0.80;;;;;;;7.57;100.00;98470.88;4970127;28;20212;-80
2024/01/04 03:02:26;;;;;;;1.97;0.60;;;;;;;7.55;100.00;98476.28;4963857;28;20208;-81
2024/01/04 03:04:52;;;;;;;1.07;0.60;;;;;;;7.54;100.00;98479.91;4967323;28;20603;-79
2024/01/04 03:07:19;;;;;;;1.73;0.50;;;;;;;7.53;100.00;98483.53;4972261;28;20232;-79
2024/01/04 03:09:48;;;;;;;1.37;0.70;;;;;;;7.53;100.00;98494.13;4972683;28;20687;-80
2024/01/04 03:12:15;;;;;;;0.50;0.50;;;;;;;7.51;100.00;98496.09;4974022;28;20216;-77
2024/01/04 03:14:42;;;;;;;2.40;0.50;;;;;;;7.47;100.00;98497.31;4970661;28;20691;-81
2024/01/04 03:17:09;;;;;;;1.33;0.50;;;;;;;7.47;100.00;98499.97;4969869;28;20599;-80
2024/01/04 03:19:35;;;;;;;3.87;0.60;;;;;;;7.45;100.00;98499.25;4968001;28;20583;-80
2024/01/04 03:22:02;;;;;;;0.83;0.60;;;;;;;7.42;100.00;98498.66;4967114;28;20727;-80
2024/01/04 03:24:29;;;;;;;1.23;0.60;;;;;;;7.40;100.00;98506.72;4968072;28;20882;-81
2024/01/04 03:26:55;;;;;;;1.43;0.60;;;;;;;7.41;100.00;98505.78;4970677;28;20341;-78
2024/01/04 03:29:22;;;;;;;0.93;0.60;;;;;;;7.40;100.00;98514.69;4971075;28;20204;-79
2024/01/04 03:31:50;;;;;;;1.67;0.60;;;;;;;7.42;100.00;98519.84;4968504;28;20224;-79
2024/01/04 03:34:16;;;;;;;0.50;0.50;;;;;;;7.40;100.00;98524.44;4969754;28;20220;-78
2024/01/04 03:36:43;;;;;;;1.23;0.67;;;;;;;7.37;100.00;98519.38;4967405;28;20261;-82
2024/01/04 03:39:09;;;;;;;0.83;0.63;;;;;;;7.36;100.00;98523.84;4972791;28;20205;-80
2024/01/04 03:41:36;;;;;;;0.83;0.63;;;;;;;7.38;100.00;98527.19;4970825;28;20291;-81
2024/01/04 03:44:02;;;;;;;1.80;0.90;;;;;;;7.37;100.00;98536.13;4965083;28;20584;-80
2024/01/04 03:46:29;;;;;;;1.63;0.80;;;;;;;7.37;100.00;98538.75;4971407;28;20971;-80
2024/01/04 03:48:56;;;;;;;1.83;0.80;;;;;;;7.37;100.00;98540.56;4973316;28;20228;-81
2024/01/04 03:51:23;;;;;;;0.63;0.60;;;;;;;7.36;100.00;98547.69;4963182;28;20212;-80
2024/01/04 03:53:50;;;;;;;1.50;0.90;;;;;;;7.32;100.00;98547.13;4971617;28;20676;-77
2024/01/04 03:56:16;;;;;;;1.27;0.80;;;;;;;7.32;100.00;98549.75;4968705;28;20228;-80
2024/01/04 03:58:43;;;;;;;1.00;0.70;;;;;;;7.32;100.00;98555.06;4969603;28;20215;-79
2024/01/04 04:01:09;;;;;;;1.37;0.90;;;;;;;7.31;100.00;98549.88;4970545;28;20199;-79
2024/01/04 04:03:36;;;;;;;1.03;0.80;;;;;;;7.28;100.00;98558.94;4971451;28;20633;-80
2024/01/04 04:06:07;;;;;;;2.70;1.90;;;;;;;7.26;100.00;98562.66;4970462;28;20488;-81
2024/01/04 04:08:34;;;;;;;2.80;0.83;;;;;;;7.27;100.00;98567.00;4971524;28;20212;-80
2024/01/04 04:11:00;;;;;;;0.90;0.73;;;;;;;7.26;100.00;98567.97;4971019;28;20215;-81
2024/01/04 04:13:27;;;;;;;1.97;1.30;;;;;;;7.25;100.00;98571.56;4968991;28;20215;-82
2024/01/04 04:15:53;;;;;;;1.97;1.17;;;;;;;7.27;100.00;98572.28;4964616;28;20237;-81
2024/01/04 04:18:20;;;;;;;2.20;1.30;;;;;;;7.23;100.00;98578.78;4969930;28;20208;-80
2024/01/04 04:20:46;;;;;;;6.07;1.97;;;;;;;7.21;100.00;98583.38;4966682;28;20208;-82
2024/01/04 04:23:14;;;;;;;1.40;1.03;;;;;;;7.21;100.00;98597.44;4966509;28;20225;-83
2024/01/04 04:25:41;;;;;;;4.20;1.37;;;;;;;7.21;100.00;98600.09;4970973;28;20208;-82
2024/01/04 04:28:07;;;;;;;2.73;1.10;;;;;;;7.21;100.00;98596.59;4973326;28;20230;-79
2024/01/04 04:30:34;;;;;;;1.17;0.80;;;;;;;7.19;100.00;98601.19;4968456;28;20205;-82
2024/01/04 04:33:00;;;;;;;1.40;0.60;;;;;;;7.18;100.00;98607.44;4971024;28;20328;-83
2024/01/04 04:35:27;;;;;;;0.80;0.50;;;;;;;7.12;100.00;98619.41;4967489;28;20208;-80
2024/01/04 04:37:54;;;;;;;1.83;0.63;;;;;;;7.03;100.00;98637.81;4971029;28;20311;-81
2024/01/04 04:40:21;;;;;;;0.73;0.30;;;;;;;6.99;100.00;98636.41;4974092;28;20550;-81
2024/01/04 04:42:48;;;;;;;0.50;0.37;;;;;;;6.91;100.00;98640.50;4964875;28;20212;-81
2024/01/04 04:45:15;;;;;;;0.70;0.30;;;;;;;6.83;100.00;98645.53;4967573;28;20205;-81
2024/01/04 04:47:41;;;;;;;1.10;0.40;;;;;;;6.78;99.91;98638.97;4974437;28;20236;-81
2024/01/04 04:50:08;;;;;;;0.33;0.33;;;;;;;6.74;98.76;98646.28;4968958;28;20659;-80
2024/01/04 04:52:35;;;;;;;0.63;0.40;;;;;;;6.72;97.96;98650.00;4971742;28;20204;-81
2024/01/04 04:55:02;;;;;;;0.67;0.37;;;;;;;6.70;97.95;98655.44;4970318;28;20263;-80
2024/01/04 04:57:30;;;;;;;0.70;0.30;;;;;;;6.66;97.27;98656.63;4971973;28;20224;-78
2024/01/04 04:59:56;;;;;;;0.67;0.40;;;;;;;6.60;97.57;98665.06;4966109;28;20228;-81
2024/01/04 05:02:23;;;;;;;1.07;0.20;;;;;;;6.60;97.43;98681.78;4962234;28;20209;-80
2024/01/04 05:04:49;;;;;;;0.63;0.30;;;;;;;6.59;97.86;98677.44;4970094;28;20275;-80
2024/01/04 05:07:16;;;;;;;0.27;0.23;;;;;;;6.55;98.12;98686.56;4971672;28;20244;-82
2024/01/04 05:09:42;;;;;;;0.20;0.20;;;;;;;6.55;98.92;98691.88;4971534;28;20216;-82
2024/01/04 05:12:09;;;;;;;0.73;0.50;;;;;;;6.55;100.00;98697.16;4970180;28;20216;-79
2024/01/04 05:14:36;;;;;;;0.77;0.70;;;;;;;6.53;100.00;98706.16;4970942;28;20204;-79
2024/01/04 05:17:03;;;;;;;0.90;0.60;;;;;;;6.48;100.00;98716.25;4969213;28;20595;-81
2024/01/04 05:19:29;;;;;;;0.77;0.50;;;;;;;6.44;100.00;98710.38;4974349;28;20200;-81
2024/01/04 05:21:56;;;;;;;0.60;0.40;;;;;;;6.40;100.00;98727.44;4968053;28;20212;-81
2024/01/04 05:24:23;;;;;;;1.10;0.40;;;;;;;6.35;100.00;98729.56;4966010;28;20211;-81
2024/01/04 05:26:49;;;;;;;0.77;0.40;;;;;;;6.30;100.00;98731.72;4973322;28;20228;-79
2024/01/04 05:29:15;;;;;;;1.00;0.40;;;;;;;6.22;100.00;98742.06;4972574;28;20232;-81
2024/01/04 05:31:43;;;;;;;1.83;0.50;;;;;;;6.17;100.00;98744.19;4976002;28;20208;-83
2024/01/04 05:34:10;;;;;;;0.30;0.20;;;;;;;6.09;100.00;98750.03;4975341;28;20204;-81
2024/01/04 05:36:36;;;;;;;0.73;0.20;;;;;;;6.01;100.00;98749.78;4976749;28;20223;-83
2024/01/04 05:39:03;;;;;;;0.63;0.20;;;;;;;5.98;100.00;98759.75;4977588;28;20610;-83
2024/01/04 05:41:30;;;;;;;1.07;0.10;;;;;;;5.90;100.00;98747.13;4973699;28;20227;-81
2024/01/04 05:43:56;;;;;;;0.40;0.30;;;;;;;5.84;100.00;98758.94;4979619;28;20203;-80
2024/01/04 05:46:23;;;;;;;0.37;0.20;;;;;;;5.77;100.00;98773.53;4973198;28;20228;-82
2024/01/04 05:48:50;;;;;;;0.20;0.20;;;;;;;5.70;100.00;98772.31;4971840;28;20261;-82
2024/01/04 05:51:17;;;;;;;0.50;0.30;;;;;;;5.69;100.00;98775.06;4972789;28;20208;-81
2024/01/04 05:53:43;;;;;;;0.90;0.10;;;;;;;5.66;100.00;98786.69;4969732;28;20208;-81
2024/01/04 05:56:10;;;;;;;0.50;0.30;;;;;;;5.63;100.00;98791.34;4966485;28;20601;-83
2024/01/04 05:58:36;;;;;;;0.27;0.20;;;;;;;5.56;100.00;98786.50;4971383;28;20578;-82
2024/01/04 06:01:03;;;;;;;3.07;0.23;;;;;;;5.56;100.00;98794.44;4963961;28;20211;-81
2024/01/04 06:03:29;;;;;;;0.47;0.30;;;;;;;5.52;100.00;98803.56;4970366;28;20811;-83
2024/01/04 06:05:57;;;;;;;2.20;0.20;;;;;;;5.54;100.00;98812.22;4974366;28;20279;-81
2024/01/04 06:08:24;;;;;;;0.87;0.30;;;;;;;5.50;100.00;98829.22;4972426;28;20224;-82
2024/01/04 06:10:50;;;;;;;0.30;0.30;;;;;;;5.50;100.00;98833.66;4969266;28;20208;-80
2024/01/04 06:13:18;;;;;;;2.00;0.77;;;;;;;5.47;100.00;98840.00;4968761;28;20212;-82
2024/01/04 06:15:45;;;;;;;0.70;0.63;;;;;;;5.43;100.00;98838.53;4973341;28;20251;-82
2024/01/04 06:18:12;;;;;;;2.50;1.00;;;;;;;5.37;100.00;98849.53;4967890;28;20926;-81
2024/01/04 06:20:39;;;;;;;1.40;0.97;;;;;;;5.28;100.00;98860.72;4967618;28;20219;-83
2024/01/04 06:23:06;;;;;;;1.30;0.70;;;;;;;5.24;100.00;98869.81;4969674;28;20661;-81
2024/01/04 06:25:33;;;;;;;2.73;0.97;;;;;;;5.21;100.00;98867.38;4971591;28;20205;-82
2024/01/04 06:27:59;;;;;;;1.07;0.97;;;;;;;5.20;100.00;98873.59;4971321;28;20228;-81
2024/01/04 06:30:26;;;;;;;1.47;1.07;;;;;;;5.20;100.00;98878.88;4969105;28;20212;-81
2024/01/04 06:32:53;;;;;;;0.97;0.53;;;;;;;5.18;100.00;98872.88;4971455;28;20219;-80
2024/01/04 06:35:19;;;;;;;1.87;0.60;;;;;;;5.14;100.00;98885.44;4967692;28;20215;-82
2024/01/04 06:37:46;;;;;;;0.90;0.60;;;;;;;5.09;100.00;98887.53;4973014;28;20227;-83
2024/01/04 06:40:15;;;;;;;2.47;0.70;;;;;;;5.02;100.00;98895.97;4969764;28;20212;-81
2024/01/04 06:42:42;;;;;;;2.57;0.70;;;;;;;4.96;100.00;98902.53;4967683;28;20662;-81
2024/01/04 06:45:09;;;;;;;1.43;0.70;;;;;;;4.98;99.12;98910.34;4969008;28;20267;-83
2024/01/04 06:47:35;;;;;;;2.23;1.03;;;;;;;4.97;99.72;98919.22;4968338;28;20623;-82
2024/01/04 06:50:02;;;;;;;0.50;0.50;;;;;;;4.94;99.42;98914.97;4966013;28;20259;-81
2024/01/04 06:52:29;;;;;;;1.00;0.70;;;;;;;4.94;99.13;98932.59;4971434;28;20200;-83
2024/01/04 06:54:56;;;;;;;1.90;0.93;;;;;;;4.94;99.78;98935.25;4969097;28;20212;-81
2024/01/04 06:57:24;;;;;;;1.10;0.60;;;;;;;4.95;99.92;98937.78;4969507;28;20264;-81
2024/01/04 06:59:50;;;;;;;2.13;0.90;;;;;;;4.95;99.59;98942.22;4970895;28;20707;-81
2024/01/04 07:02:17;;;;;;;1.87;0.70;;;;;;;4.96;99.32;98955.28;4971001;28;20232;-82
2024/01/04 07:04:43;;;;;;;1.20;0.50;;;;;;;4.95;98.89;98950.97;4969960;28;20223;-83
2024/01/04 07:07:10;;;;;;;2.40;0.80;;;;;;;4.92;98.29;98948.53;4971467;28;20227;-81
2024/01/04 07:09:37;;;;;;;1.43;0.43;;;;;;;4.87;97.26;98956.75;4970270;28;20224;-82
2024/01/04 07:12:06;;;;;;;1.03;0.67;;;;;;;4.88;96.98;98953.16;4967966;28;20207;-82
2024/01/04 07:14:37;;;;;;;1.17;0.70;;;;;;;4.89;96.05;98969.84;4971913;28;20311;-83
2024/01/04 07:17:05;;;;;;;1.23;0.50;;;;;;;4.87;95.53;98974.38;4968840;28;20227;-80
2024/01/04 07:19:31;;;;;;;1.77;0.93;;;;;;;4.87;94.75;98972.56;4969870;28;20202;-81
2024/01/04 07:21:58;;;;;;;1.03;0.50;;;;;;;4.85;94.38;98963.06;4967758;28;20204;-81
2024/01/04 07:24:24;;;;;;;1.37;1.10;;;;;;;4.86;93.50;98976.16;4970512;28;20204;-83
2024/01/04 07:26:51;;;;;;;2.07;0.50;;;;;;;4.84;93.31;98983.31;4966927;28;20232;-81
2024/01/04 07:29:17;;;;;;;1.37;0.50;;;;;;;4.85;92.58;98990.28;4972131;28;20224;-81
2024/01/04 07:31:46;;;;;;;1.33;0.50;;;;;;;4.90;91.95;98997.91;4970600;28;20209;-80
2024/01/04 07:34:12;;;;;;;0.90;0.37;;;;;;;4.90;90.90;99000.53;4969867;28;20279;-80
2024/01/04 07:36:39;;;;;;;1.43;0.60;;;;;;;4.87;90.85;99004.22;4969640;28;20232;-81
2024/01/04 07:39:06;;;;;;;1.60;0.50;;;;;;;4.91;90.32;99009.31;4969961;28;20208;-81
2024/01/04 07:41:32;;;;;;;0.73;0.50;;;;;;;4.88;90.63;99012.97;4967934;28;20740;-81
2024/01/04 07:43:59;;;;;;;2.83;0.90;;;;;;;4.92;90.33;99024.19;4970501;28;20204;-80
2024/01/04 07:46:25;;;;;;;2.63;1.00;;;;;;;4.91;90.63;99022.50;4965850;28;20232;-81
2024/01/04 07:48:53;;;;;;;1.80;1.23;;;;;;;4.94;88.80;99027.56;4972618;28;20227;-82
2024/01/04 07:51:19;;;;;;;1.80;1.00;;;;;;;4.95;89.34;99039.81;4962565;28;20588;-82
2024/01/04 07:53:46;;;;;;;1.63;0.70;;;;;;;4.91;89.17;99043.59;4969496;28;20204;-78
2024/01/04 07:56:12;;;;;;;1.17;0.60;;;;;;;4.88;88.65;99048.13;4965943;28;20231;-79
2024/01/04 07:58:39;;;;;;;1.03;0.60;;;;;;;4.91;88.47;99051.50;4970249;28;20219;-82
2024/01/04 08:01:06;;;;;;;2.23;0.43;;;;;;;4.95;88.43;99063.56;4966409;28;20209;-82
2024/01/04 08:03:33;;;;;;;1.80;0.60;;;;;;;4.92;87.92;99058.47;4971022;28;20209;-79
2024/01/04 08:06:01;;;;;;;1.50;0.47;;;;;;;4.93;87.36;99073.38;4970811;28;20231;-80
2024/01/04 08:08:27;;;;;;;0.70;0.30;;;;;;;4.94;87.52;99081.19;4969857;28;20220;-81
2024/01/04 08:10:54;;;;;;;1.83;0.53;;;;;;;4.88;87.20;99089.47;4973239;28;20215;-82
2024/01/04 08:13:21;;;;;;;2.60;0.57;;;;;;;4.91;86.97;99099.84;4969780;28;20208;-83
2024/01/04 08:15:47;;;;;;;1.33;0.50;;;;;;;4.91;87.42;99093.72;4974981;28;20200;-81
2024/01/04 08:18:14;;;;;;;1.57;0.50;;;;;;;4.92;87.80;99108.59;4970853;28;20232;-82
2024/01/04 08:20:40;;;;;;;1.00;0.40;;;;;;;4.91;87.79;99110.38;4968259;28;20209;-82
2024/01/04 08:23:08;;;;;;;3.67;1.33;;;;;;;4.97;87.77;99114.44;4969179;28;20219;-79
2024/01/04 08:25:34;;;;;;;0.33;0.30;;;;;;;4.92;86.87;99109.44;4970070;28;20212;-82
2024/01/04 08:28:01;;;;;;;1.07;0.50;;;;;;;4.96;86.38;99115.38;4974572;28;20220;-81
2024/01/04 08:30:27;;;;;;;1.47;0.70;;;;;;;4.97;86.80;99125.00;4971232;28;20572;-80
2024/01/04 08:32:54;;;;;;;0.43;0.30;;;;;;;4.99;86.18;99123.94;4971259;28;20243;-82
2024/01/04 08:35:20;;;;;;;1.53;0.67;;;;;;;4.95;85.00;99127.72;4969211;28;20205;-81
2024/01/04 08:37:47;;;;;;;1.00;0.40;;;;;;;4.93;85.03;99131.41;4969752;28;20229;-82
2024/01/04 08:40:15;;;;;;;0.83;0.40;;;;;;;4.94;84.90;99136.56;4970922;28;20280;-81
2024/01/04 08:42:42;;;;;;;1.57;0.37;;;;;;;4.94;84.71;99141.00;4973187;28;20220;-80
2024/01/04 08:45:09;;;;;;;1.50;0.50;;;;;;;4.93;84.24;99139.31;4970484;28;20209;-82
2024/01/04 08:47:36;;;;;;;2.27;0.70;;;;;;;4.89;83.70;99144.78;4965831;28;20307;-81
2024/01/04 08:50:03;;;;;;;0.80;0.40;;;;;;;4.91;83.99;99157.03;4967036;28;20592;-82
2024/01/04 08:52:29;;;;;;;0.73;0.30;;;;;;;4.92;83.67;99142.91;4972479;28;20214;-80
2024/01/04 08:54:56;;;;;;;1.73;0.40;;;;;;;4.93;82.96;99157.78;4969674;28;20211;-81
2024/01/04 08:57:24;;;;;;;0.43;0.23;;;;;;;4.92;82.78;99159.56;4972517;28;20254;-82
2024/01/04 08:59:50;;;;;;;3.20;0.63;;;;;;;4.91;82.76;99162.31;4965511;28;20698;-82
2024/01/04 09:02:18;;;;;;;1.73;0.20;;;;;;;4.91;82.86;99162.31;4966674;28;20212;-82
2024/01/04 09:04:44;;;;;;;2.67;0.43;;;;;;;4.89;83.50;99160.59;4970148;28;20298;-81
2024/01/04 09:07:12;;;;;;;0.60;0.30;;;;;;;4.93;83.40;99169.19;4974332;28;20227;-81
2024/01/04 09:09:40;;;;;;;1.00;0.50;;;;;;;4.94;83.33;99170.03;4973002;28;20224;-81
2024/01/04 09:12:06;;;;;;;1.50;0.30;;;;;;;4.95;83.60;99174.38;4969319;28;20200;-80
2024/01/04 09:14:34;;;;;;;1.43;0.53;;;;;;;4.97;84.26;99183.03;4974715;28;20686;-81
2024/01/04 09:17:01;;;;;;;0.97;0.40;;;;;;;4.96;84.07;99181.34;4969032;28;20224;-81
2024/01/04 09:19:28;;;;;;;1.40;0.40;;;;;;;4.99;83.76;99189.06;4970568;28;20307;-80
2024/01/04 09:21:55;;;;;;;3.13;0.40;;;;;;;4.94;83.57;99204.31;4971064;28;20200;-80
2024/01/04 09:24:21;;;;;;;0.43;0.40;;;;;;;4.95;83.79;99204.22;4967129;28;20224;-81
2024/01/04 09:26:48;;;;;;;1.37;0.40;;;;;;;4.96;83.58;99215.63;4972036;28;20231;-81
2024/01/04 09:29:16;;;;;;;1.00;0.27;;;;;;;4.95;83.94;99222.69;4969669;28;20232;-81
2024/01/04 09:31:44;;;;;;;0.67;0.23;;;;;;;4.91;83.66;99226.47;4965889;28;20268;-81
2024/01/04 09:34:11;;;;;;;1.00;0.30;;;;;;;4.87;83.69;99235.50;4969181;28;20654;-79
2024/01/04 09:36:37;;;;;;;1.90;0.30;;;;;;;4.91;83.97;99244.09;4967634;28;20226;-80
2024/01/04 09:39:04;;;;;;;1.93;0.60;;;;;;;4.88;84.56;99245.13;4969314;28;20204;-80
2024/01/04 09:41:31;;;;;;;1.33;0.40;;;;;;;4.87;84.68;99260.09;4970037;28;20534;-81
2024/01/04 09:44:00;;;;;;;1.23;0.50;;;;;;;4.85;86.37;99264.63;4966525;28;20569;-80
2024/01/04 09:46:32;;;;;;;1.30;1.10;;;;;;;4.88;88.22;99279.41;4971904;28;20246;-81
2024/01/04 09:49:00;;;;;;;2.47;0.63;;;;;;;4.89;89.69;99281.97;4974161;28;20207;-83
2024/01/04 09:51:29;;;;;;;0.60;0.57;;;;;;;4.87;90.25;99288.25;4968575;28;20208;-81
2024/01/04 09:53:56;;;;;;;1.63;1.20;;;;;;;4.84;91.04;99294.56;4968149;28;20207;-82
2024/01/04 09:56:23;;;;;;;1.20;1.10;;;;;;;4.83;92.05;99298.19;4972251;28;20646;-81
2024/01/04 09:58:50;;;;;;;1.73;0.70;;;;;;;4.85;92.86;99298.06;4977022;28;20220;-82
2024/01/04 10:01:20;;;;;;;0.83;0.70;;;;;;;4.82;92.48;99295.63;4973822;28;20204;-81
2024/01/04 10:03:48;;;;;;;0.70;0.50;;;;;;;4.75;92.87;99303.06;4968735;28;20200;-81
2024/01/04 10:06:22;;;;;;;0.93;0.60;;;;;;;4.68;93.28;99317.56;4970812;28;20228;-80
2024/01/04 10:08:52;;;;;;;0.80;0.80;;;;;;;4.62;93.98;99319.72;4969287;28;20205;-81
2024/01/04 10:11:25;;;;;;;2.50;0.90;;;;;;;4.62;94.56;99322.38;4975577;28;20216;-79
2024/01/04 10:13:52;;;;;;;1.10;0.87;;;;;;;4.59;94.69;99319.91;4975770;28;20220;-81
2024/01/04 10:16:18;;;;;;;1.57;0.90;;;;;;;4.58;94.55;99320.84;4979180;28;20231;-80
2024/01/04 10:18:45;;;;;;;0.67;0.67;;;;;;;4.53;94.43;99329.03;4972610;28;20209;-82
2024/01/04 10:21:11;;;;;;;1.87;0.80;;;;;;;4.52;95.12;99329.97;4972045;28;20231;-79
2024/01/04 10:23:39;;;;;;;2.40;0.80;;;;;;;4.52;94.91;99343.16;4968562;28;20224;-81
2024/01/04 10:26:07;;;;;;;1.57;0.60;;;;;;;4.47;95.00;99329.41;4973782;28;20231;-82
2024/01/04 10:28:35;;;;;;;0.97;0.60;;;;;;;4.44;94.04;99337.50;4968988;28;20251;-82
2024/01/04 10:31:03;;;;;;;1.57;0.83;;;;;;;4.39;94.02;99344.81;4964127;28;20321;-83
2024/01/04 10:33:29;;;;;;;3.07;0.67;;;;;;;4.34;94.89;99352.13;4972879;28;20694;-82
2024/01/04 10:35:56;;;;;;;1.87;0.80;;;;;;;4.36;95.22;99358.16;4970025;28;20259;-83
2024/01/04 10:38:23;;;;;;;0.80;0.53;;;;;;;4.37;95.33;99352.81;4971466;28;20200;-82
2024/01/04 10:41:01;;;;;;;1.17;0.80;;;;;;;4.33;94.88;99348.66;4972626;28;20215;-82
2024/01/04 10:43:30;;;;;;;2.10;0.90;;;;;;;4.36;94.40;99355.53;4976015;28;20228;-83
2024/01/04 10:46:02;;;;;;;2.20;0.77;;;;;;;4.33;94.47;99368.88;4969042;28;20685;-83
2024/01/04 10:48:28;;;;;;;1.80;0.80;;;;;;;4.31;93.34;99362.84;4970952;28;20252;-83
2024/01/04 10:51:02;;;;;;;2.07;0.90;;;;;;;4.29;93.36;99368.25;4965258;28;20234;-80
2024/01/04 10:53:31;;;;;;;3.83;0.97;;;;;;;4.23;93.64;99370.38;4968584;28;20200;-82
2024/01/04 10:56:00;;;;;;;1.43;0.70;;;;;;;4.22;93.33;99380.06;4970112;28;20211;-81
2024/01/04 10:58:26;;;;;;;2.00;0.80;;;;;;;4.22;94.29;99384.47;4974329;28;20625;-82
2024/01/04 11:00:53;;;;;;;3.33;1.10;;;;;;;4.25;94.38;99384.31;4968129;28;20204;-81
2024/01/04 11:03:20;;;;;;;1.17;0.70;;;;;;;4.28;94.60;99392.03;4970831;28;20259;-79
2024/01/04 11:05:48;;;;;;;0.97;0.80;;;;;;;4.27;93.92;99396.47;4970500;28;20222;-81
2024/01/04 11:08:17;;;;;;;1.17;0.60;;;;;;;4.24;94.06;99393.16;4970792;28;20570;-82
2024/01/04 11:10:44;;;;;;;2.17;0.77;;;;;;;4.29;94.09;99399.00;4971248;28;20224;-83
2024/01/04 11:13:13;;;;;;;2.23;0.63;;;;;;;4.29;93.86;99402.50;4965870;28;20268;-81
2024/01/04 11:15:39;;;;;;;0.70;0.63;;;;;;;4.29;94.49;99412.19;4970891;28;20200;-81
2024/01/04 11:18:21;;;;;;;0.80;0.67;;;;;;;4.29;94.21;99406.91;4967449;28;20259;-81
2024/01/04 11:21:04;;;;;;;1.23;0.70;;;;;;;4.32;94.03;99412.00;4963370;28;20203;-82
2024/01/04 11:23:52;;;;;;;1.70;0.90;;;;;;;4.35;94.37;99409.19;4965103;28;20698;-82
2024/01/04 11:26:26;;;;;;;1.27;0.73;;;;;;;4.40;93.84;99412.41;4966911;28;20240;-81
2024/01/04 11:28:55;;;;;;;1.10;0.90;;;;;;;4.44;93.08;99416.56;4965881;28;20199;-82
2024/01/04 11:31:23;;;;;;;1.43;0.90;;;;;;;4.45;92.59;99419.13;4967210;28;20278;-80
2024/01/04 11:33:50;;;;;;;1.07;0.80;;;;;;;4.46;91.44;99419.97;4970383;28;20205;-82
2024/01/04 11:36:19;;;;;;;0.90;0.80;;;;;;;4.48;91.01;99428.63;4968353;28;20291;-81